KSAD/SAD METAR and TAF weather

Enter ICAO airport designator
Station Type Date Time Source
KSAD METAR 2021/09/28 04:51 UTC NOAA

KSAD 280451Z AUTO 10004KT 10SM BKN080 21/16 A2997 RMK AO2 SLP111 T02060156


Station Type Date Time Source
KSAD Decoded METAR 2021/09/28 04:51 UTC NOAA

SAFFORD MUNICIPAL AIRPORT, AZ, United States (KSAD) 32-51N 109-38W 962M
Sep 28, 2021 - 12:51 AM EDT / 2021.09.28 0451 UTC
Wind: from the E (100 degrees) at 5 MPH (4 KT):0
Visibility: 10 mile(s):0
Sky conditions: mostly cloudy
Temperature: 69.1 F (20.6 C)
Dew Point: 60.1 F (15.6 C)
Relative Humidity: 73%
Pressure (altimeter): 29.97 in. Hg (1014 hPa)
ob: KSAD 280451Z AUTO 10004KT 10SM BKN080 21/16 A2997 RMK AO2 SLP111 T02060156
cycle: 5

Station Type Date Time Source
KSAD TAF UTC NOAA

Error!

Example: see airport list